createdAt,value
2019-03-23T00:02:22.434Z,24.47
2019-03-23T00:07:28.648Z,24.15
2019-03-23T00:12:34.798Z,22.90
2019-03-23T00:17:40.651Z,23.22
2019-03-23T00:22:47.422Z,23.38
2019-03-23T00:27:53.235Z,22.32
2019-03-23T00:32:59.040Z,20.68
2019-03-23T00:38:04.966Z,21.75
2019-03-23T00:43:10.859Z,20.15
2019-03-23T00:48:16.664Z,20.57
2019-03-23T00:53:22.799Z,19.90
2019-03-23T00:58:29.598Z,18.70
2019-03-23T01:03:35.754Z,19.23
2019-03-23T01:08:42.107Z,18.25
2019-03-23T01:13:48.215Z,19.60
2019-03-23T01:18:54.234Z,21.85
2019-03-23T01:24:00.025Z,24.27
2019-03-23T01:29:05.819Z,25.90
2019-03-23T01:34:14.061Z,25.60
2019-03-23T01:39:19.863Z,22.37
2019-03-23T01:44:25.666Z,22.13
2019-03-23T01:49:32.565Z,25.55
2019-03-23T01:54:38.379Z,25.40
2019-03-23T01:59:44.188Z,23.95
2019-03-23T02:04:50.854Z,24.55
2019-03-23T02:09:56.675Z,24.10
2019-03-23T02:15:03.656Z,24.45
2019-03-23T02:20:10.490Z,26.30
2019-03-23T02:25:16.723Z,24.18
2019-03-23T02:30:23.604Z,25.23
2019-03-23T02:35:29.424Z,24.67
2019-03-23T02:40:35.269Z,25.77
2019-03-23T02:45:41.067Z,25.70
2019-03-23T02:50:47.107Z,26.17
2019-03-23T02:55:53.325Z,26.12
2019-03-23T03:00:59.127Z,25.90
2019-03-23T03:06:04.958Z,25.97
2019-03-23T03:11:11.952Z,24.05
2019-03-23T03:16:18.602Z,22.53
2019-03-23T03:21:25.217Z,22.10
2019-03-23T03:26:31.390Z,22.45
2019-03-23T03:31:37.446Z,22.85
2019-03-23T03:36:44.635Z,22.87
2019-03-23T03:41:50.573Z,21.77
2019-03-23T03:46:56.367Z,21.87
2019-03-23T03:52:02.499Z,20.80
2019-03-23T03:57:09.195Z,22.32
2019-03-23T04:02:15.834Z,22.10
2019-03-23T04:07:21.721Z,20.60
2019-03-23T04:12:28.587Z,21.30
2019-03-23T04:17:34.630Z,20.80
2019-03-23T04:22:41.237Z,20.50
2019-03-23T04:27:47.238Z,20.97
2019-03-23T04:32:54.241Z,18.98
2019-03-23T04:37:59.929Z,17.97
2019-03-23T04:43:05.902Z,18.13
2019-03-23T04:48:11.666Z,16.95
2019-03-23T04:53:17.352Z,17.10
2019-03-23T04:58:23.370Z,16.85
2019-03-23T05:03:29.980Z,16.30
2019-03-23T05:08:36.238Z,16.60
2019-03-23T05:13:41.860Z,17.10
2019-03-23T05:18:47.471Z,16.57
2019-03-23T05:23:53.417Z,15.97
2019-03-23T05:28:59.964Z,15.43
2019-03-23T05:34:06.134Z,16.87
2019-03-23T05:39:11.811Z,15.48
2019-03-23T05:44:17.571Z,15.48
2019-03-23T05:49:23.638Z,16.02
2019-03-23T05:54:29.311Z,15.53
2019-03-23T05:59:35.010Z,16.65
2019-03-23T06:04:41.738Z,16.10
2019-03-23T06:09:47.435Z,15.35
2019-03-23T06:14:53.119Z,14.47
2019-03-23T06:19:58.945Z,14.30
2019-03-23T06:25:05.323Z,13.80
2019-03-23T06:30:11.482Z,13.13
2019-03-23T06:35:17.278Z,12.67
2019-03-23T06:40:23.788Z,11.95
2019-03-23T06:45:29.687Z,12.20
2019-03-23T06:50:36.214Z,13.15
2019-03-23T06:55:41.906Z,12.37
2019-03-23T07:00:48.077Z,11.80
2019-03-23T07:05:55.911Z,11.73
2019-03-23T07:11:01.707Z,10.55
2019-03-23T07:16:07.681Z,10.03
2019-03-23T07:21:14.523Z,10.15
2019-03-23T07:26:20.389Z,9.20
2019-03-23T07:31:26.663Z,9.30
2019-03-23T07:36:33.072Z,9.05
2019-03-23T07:41:39.381Z,10.13
2019-03-23T07:46:48.600Z,8.83
2019-03-23T07:51:54.569Z,8.18
2019-03-23T07:57:03.129Z,8.93
2019-03-23T08:02:09.250Z,8.45
2019-03-23T08:07:16.437Z,8.58
2019-03-23T08:12:26.400Z,8.33
2019-03-23T08:17:37.009Z,8.70
2019-03-23T08:22:45.435Z,9.18
2019-03-23T08:27:54.317Z,9.60
2019-03-23T08:33:00.752Z,9.03
2019-03-23T08:38:08.606Z,8.33
2019-03-23T08:43:19.150Z,8.58
2019-03-23T08:48:25.753Z,8.83
2019-03-23T08:53:31.694Z,9.18
2019-03-23T08:58:35.404Z,8.90
2019-03-23T09:03:51.793Z,9.18
2019-03-23T09:08:49.775Z,9.55
2019-03-23T09:13:58.029Z,9.40
2019-03-23T09:19:05.949Z,9.10
2019-03-23T09:24:13.112Z,9.13
2019-03-23T09:29:22.792Z,8.60
2019-03-23T09:34:33.706Z,8.70
2019-03-23T09:39:45.973Z,8.60
2019-03-23T09:44:56.455Z,9.63
2019-03-23T09:50:05.491Z,8.30
2019-03-23T09:55:13.875Z,8.63
2019-03-23T10:00:21.162Z,8.60
2019-03-23T10:05:28.689Z,8.78
2019-03-23T10:10:39.680Z,8.78
2019-03-23T10:15:48.218Z,9.88
2019-03-23T10:20:55.266Z,10.03
2019-03-23T10:26:04.056Z,9.25
2019-03-23T10:31:11.853Z,9.25
2019-03-23T10:36:19.901Z,8.73
2019-03-23T10:41:29.384Z,11.70
2019-03-23T10:46:41.426Z,12.53
2019-03-23T10:51:56.219Z,12.60
2019-03-23T10:57:03.453Z,12.63
2019-03-23T11:02:12.042Z,12.23
2019-03-23T11:07:24.865Z,13.18
2019-03-23T11:12:31.561Z,12.80
2019-03-23T11:17:40.370Z,13.45
2019-03-23T11:22:52.107Z,13.62
2019-03-23T11:28:00.744Z,13.60
2019-03-23T11:33:08.762Z,13.28
2019-03-23T11:38:17.204Z,12.28
2019-03-23T11:43:28.390Z,12.68
2019-03-23T11:48:38.283Z,12.78
2019-03-23T11:53:48.317Z,13.40
2019-03-23T11:58:56.148Z,12.65
2019-03-23T12:04:04.657Z,13.22
2019-03-23T12:09:13.940Z,14.78
2019-03-23T12:14:21.671Z,14.30
2019-03-23T12:19:32.628Z,14.10
2019-03-23T12:24:40.248Z,13.72
2019-03-23T12:29:48.144Z,14.10
2019-03-23T12:34:55.244Z,15.03
2019-03-23T12:40:04.796Z,13.80
2019-03-23T12:45:14.901Z,13.72
2019-03-23T12:50:20.762Z,13.13
2019-03-23T12:55:26.874Z,13.25
2019-03-23T13:00:32.707Z,13.55
2019-03-23T13:05:38.907Z,14.63
2019-03-23T13:10:44.713Z,13.50
2019-03-23T13:15:51.024Z,14.95
2019-03-23T13:20:56.799Z,14.58
2019-03-23T13:26:02.642Z,13.90
2019-03-23T13:31:08.443Z,14.03
2019-03-23T13:36:14.300Z,14.80
2019-03-23T13:41:20.035Z,15.35
2019-03-23T13:46:25.830Z,13.60
2019-03-23T13:51:31.657Z,14.03
2019-03-23T13:56:37.552Z,13.80
2019-03-23T14:01:43.362Z,14.80
2019-03-23T14:06:51.338Z,13.40
2019-03-23T14:11:59.618Z,14.13
2019-03-23T14:17:05.601Z,14.05
2019-03-23T14:22:15.667Z,12.45
2019-03-23T14:27:22.248Z,12.75
2019-03-23T14:32:29.454Z,36.83
2019-03-23T14:37:37.897Z,40.95
2019-03-23T14:42:50.544Z,43.45
2019-03-23T14:47:57.933Z,43.70
2019-03-23T14:53:07.920Z,47.60
2019-03-23T14:58:18.483Z,47.85
2019-03-23T15:03:27.854Z,46.68
2019-03-23T15:08:36.062Z,46.30
2019-03-23T15:13:47.666Z,44.03
2019-03-23T15:18:58.252Z,43.70
2019-03-23T15:24:10.886Z,43.50
2019-03-23T15:29:17.780Z,41.23
2019-03-23T15:34:28.961Z,42.05
2019-03-23T15:39:39.454Z,43.33
2019-03-23T15:45:03.733Z,41.60
2019-03-23T15:50:22.850Z,40.50
2019-03-23T15:55:33.190Z,40.40
2019-03-23T16:00:42.742Z,41.92
2019-03-23T16:05:53.259Z,41.68
2019-03-23T16:11:08.600Z,41.73
2019-03-23T16:16:19.434Z,39.73
2019-03-23T16:21:29.278Z,41.70
2019-03-23T16:26:35.296Z,41.50
2019-03-23T16:31:41.538Z,39.83
2019-03-23T16:36:49.196Z,38.83
2019-03-23T16:41:57.266Z,39.30
2019-03-23T16:47:03.644Z,38.85
2019-03-23T16:52:15.264Z,40.63
2019-03-23T16:57:22.871Z,37.85
2019-03-23T17:02:31.069Z,35.75
2019-03-23T17:07:37.396Z,34.83
2019-03-23T17:12:43.915Z,35.85
2019-03-23T17:17:49.729Z,37.38
2019-03-23T17:22:55.491Z,39.92
2019-03-23T17:28:01.265Z,37.20
2019-03-23T17:33:09.026Z,37.90
2019-03-23T17:38:15.923Z,36.55
2019-03-23T17:43:21.792Z,35.40
2019-03-23T17:48:27.473Z,34.08
2019-03-23T17:53:34.382Z,32.42
2019-03-23T17:58:40.155Z,33.18
2019-03-23T18:03:45.911Z,33.08
2019-03-23T18:08:51.676Z,33.05
2019-03-23T18:13:57.465Z,33.07
2019-03-23T18:19:03.227Z,32.58
2019-03-23T18:24:09.138Z,32.42
2019-03-23T18:29:15.963Z,32.93
2019-03-23T18:34:22.370Z,32.87
2019-03-23T18:39:29.396Z,32.65
2019-03-23T18:44:35.284Z,31.80
2019-03-23T18:49:41.049Z,33.90
2019-03-23T18:54:46.915Z,33.45
2019-03-23T18:59:52.990Z,32.55
2019-03-23T19:04:59.062Z,33.63
2019-03-23T19:10:05.604Z,32.48
2019-03-23T19:15:11.997Z,34.47
2019-03-23T19:20:18.209Z,33.13
2019-03-23T19:25:24.340Z,31.62
2019-03-23T19:30:30.208Z,33.08
2019-03-23T19:35:35.910Z,32.17
2019-03-23T19:40:43.255Z,32.90
2019-03-23T19:45:49.302Z,33.20
2019-03-23T19:50:55.035Z,34.70
2019-03-23T19:56:01.282Z,34.15
2019-03-23T20:01:07.269Z,35.60
2019-03-23T20:06:13.046Z,33.38
2019-03-23T20:11:18.826Z,33.80
2019-03-23T20:16:24.591Z,32.53
2019-03-23T20:21:30.279Z,32.33
2019-03-23T20:26:36.367Z,32.63
2019-03-23T20:31:42.692Z,34.27
2019-03-23T20:36:49.098Z,34.58
2019-03-23T20:41:54.994Z,35.83
2019-03-23T20:47:01.670Z,35.05
2019-03-23T20:52:08.659Z,35.80
2019-03-23T20:57:23.379Z,34.30
2019-03-23T21:02:22.168Z,38.70
2019-03-23T21:07:28.254Z,39.60
2019-03-23T21:12:34.387Z,40.45
2019-03-23T21:17:50.652Z,40.45
2019-03-23T21:22:47.822Z,39.33
2019-03-23T21:27:54.916Z,36.03
2019-03-23T21:33:01.036Z,37.53
2019-03-23T21:38:06.729Z,34.98
2019-03-23T21:43:12.495Z,35.05
2019-03-23T21:48:19.243Z,37.58
2019-03-23T21:53:26.442Z,42.08
2019-03-23T21:58:32.481Z,42.00
2019-03-23T22:03:38.279Z,41.20
2019-03-23T22:08:44.287Z,40.15
2019-03-23T22:13:50.082Z,37.80
2019-03-23T22:18:56.134Z,38.03
2019-03-23T22:24:01.821Z,35.45
2019-03-23T22:29:07.657Z,34.25
2019-03-23T22:34:13.462Z,35.23
2019-03-23T22:39:20.437Z,34.37
2019-03-23T22:44:27.373Z,34.25
2019-03-23T22:49:34.181Z,34.13
2019-03-23T22:54:40.394Z,33.35
2019-03-23T22:59:46.010Z,33.07
2019-03-23T23:04:52.431Z,34.27
2019-03-23T23:09:58.513Z,35.65
2019-03-23T23:15:05.155Z,35.52
2019-03-23T23:20:12.070Z,34.77
2019-03-23T23:25:17.820Z,36.83
2019-03-23T23:30:23.531Z,36.42
2019-03-23T23:35:29.526Z,34.27
2019-03-23T23:40:35.524Z,33.80
2019-03-23T23:45:41.280Z,34.58
2019-03-23T23:50:48.044Z,33.95
2019-03-23T23:55:53.806Z,34.92
